Lahaina, HI

1:29 AM HST on July 30, 2015 (GMT -1000)
puamana | | Change Station
CLOSE
Current Station
Personal Weather Station
Location: Lahaina, HI
Elevation: 36 ft
Nearby Weather Stations

Elev 36 ft 20.86 °N, 156.67 °W | Updated 58 seconds ago

Scattered Clouds
Scattered Clouds
76.3 °F
Feels Like 78 °F
N
0.0
Wind Variable Wind from NNE
Gusts 0.0 mph

Today
High -- | Low -- °F
--% Chance of Precip.
Yesterday
High -- | Low -- °F
Precip. -- in
6:00 AM 7:06 PM
Waxing Gibbous, 99% visible
Pressure 29.98 in
Visibility 10.0 miles
Clouds Few 4500 ft
Scattered Clouds 5500 ft
Heat Index 78 °F
Dew Point 67 °F
Humidity 74%
Rainfall 0.00 in
Snow Depth Not available.
UV 0 out of 12
Pollen Not available.
Air Quality Not available.
Flu Activity Not available.
METAR PHOG 301054Z AUTO 06010KT 10SM FEW045 SCT055 26/22 A2996 RMK AO2 SLP151 T02560217 TSNO

More Conditions Fewer Conditions

Pressure 29.98 in
Visibility 10.0 miles
Clouds Few 4500 ft
Scattered Clouds 5500 ft
Heat Index 78 °F
Dew Point 67 °F
Humidity 74%
Rainfall 0.00 in
Snow Depth Not available.
UV 0 out of 12
Pollen Not available.
Air Quality Not available.
Flu Activity Not available.
METAR PHOG 301054Z AUTO 06010KT 10SM FEW045 SCT055 26/22 A2996 RMK AO2 SLP151 T02560217 TSNO

More Conditions Fewer Conditions

10-Day Weather Forecast

×

Almanac

Astronomy

Jul. 30, 2015 Rise Set
Actual Time
Civil Twilight
Nautical Twilight
Astronomical Twilight
Moon
Length of Visible Light
Length of Day
Tomorrow will be .
, % of the Moon is Illuminated

Today's Extremes

State Highs State Lows

Community

WunderPhotos

Upload Photos

1,842,332 photos uploaded!

WunderBlogs® & News

Nearby

Air Quality

  Air Quality AQ Index Pollutant
Not available.

Snow Depth

Station Depth Elevation

Earthquake Activity

City Distance Mag. Time & Date
Minimum magnitude displayed is 2.5.

Coastal Water Temperatures

Place Temperature

Stations

Nearby Weather Stations

Station Location Temp. Windchill Dew Point Humidity Wind Precip. Elev Updated Type